createdAt,value
2017-11-27T00:00:50.081Z,95981.06
2017-11-27T00:02:30.876Z,95994.88
2017-11-27T00:04:10.361Z,96029.09
2017-11-27T00:05:49.943Z,96037.63
2017-11-27T00:07:30.743Z,96069.33
2017-11-27T00:09:10.126Z,96094.73
2017-11-27T00:10:50.521Z,96078.77
2017-11-27T00:12:31.666Z,96076.13
2017-11-27T00:14:15.932Z,96036.84
2017-11-27T00:15:56.249Z,96011.28
2017-11-27T00:17:36.733Z,95975.45
2017-11-27T00:19:15.942Z,95962.09
2017-11-27T00:20:54.924Z,95918.84
2017-11-27T00:22:43.130Z,95889.95
2017-11-27T00:24:23.237Z,95937.83
2017-11-27T00:26:02.997Z,95966.84
2017-11-27T00:27:45.745Z,95986.21
2017-11-27T00:29:24.697Z,95954.72
2017-11-27T00:31:04.601Z,95854.13
2017-11-27T00:34:29.899Z,95974.61
2017-11-27T00:36:10.124Z,95928.35
2017-11-27T00:37:50.316Z,95884.72
2017-11-27T00:39:30.025Z,95860.62
2017-11-27T00:41:09.634Z,95812.58
2017-11-27T00:42:49.027Z,95627.66
2017-11-27T00:44:30.037Z,95687.20
2017-11-27T00:46:11.549Z,95583.33
2017-11-27T00:47:52.952Z,95679.45
2017-11-27T00:49:30.122Z,95688.95
2017-11-27T00:51:09.475Z,95605.00
2017-11-27T00:52:51.140Z,95701.05
2017-11-27T00:54:33.451Z,95817.86
2017-11-27T00:56:24.946Z,95811.31
2017-11-27T00:58:04.544Z,95838.68
2017-11-27T00:59:43.268Z,95800.91
2017-11-27T01:01:23.448Z,95775.63
2017-11-27T01:03:05.157Z,95859.67
2017-11-27T01:04:45.416Z,95788.90
2017-11-27T01:06:26.607Z,95782.88
2017-11-27T01:08:06.555Z,95749.33
2017-11-27T01:09:45.954Z,95700.16
2017-11-27T01:11:27.762Z,95552.34
2017-11-27T01:13:07.940Z,95658.38
2017-11-27T01:14:46.540Z,95704.38
2017-11-27T01:16:25.640Z,95724.66
2017-11-27T01:18:08.446Z,95758.31
2017-11-27T01:19:49.138Z,95835.04
2017-11-27T01:21:27.847Z,95791.97
2017-11-27T01:23:06.959Z,95828.22
2017-11-27T01:24:47.346Z,95706.22
2017-11-27T01:26:26.750Z,95735.44
2017-11-27T01:28:07.064Z,95712.29
2017-11-27T01:29:48.838Z,95641.53
2017-11-27T01:31:29.346Z,95599.36
2017-11-27T01:33:09.758Z,95723.81
2017-11-27T01:34:49.082Z,95785.58
2017-11-27T01:38:25.063Z,95800.20
2017-11-27T01:40:07.075Z,95898.91
2017-11-27T01:41:49.389Z,95859.34
2017-11-27T01:43:29.888Z,95924.07
2017-11-27T01:45:09.695Z,95928.35
2017-11-27T01:46:49.809Z,95848.61
2017-11-27T01:48:35.073Z,95867.59
2017-11-27T01:50:15.836Z,95879.44
2017-11-27T01:51:55.851Z,95865.42
2017-11-27T01:53:37.431Z,95786.84
2017-11-27T01:55:18.333Z,95888.73
2017-11-27T01:57:01.640Z,95908.52
2017-11-27T01:58:47.071Z,95789.85
2017-11-27T02:00:47.364Z,95863.31
2017-11-27T02:02:35.859Z,95850.64
2017-11-27T02:04:24.780Z,95892.23
2017-11-27T02:06:03.956Z,95890.38
2017-11-27T02:07:47.165Z,95890.80
2017-11-27T02:09:30.672Z,95848.89
2017-11-27T02:11:09.774Z,95866.64
2017-11-27T02:12:52.008Z,95888.21
2017-11-27T02:14:34.012Z,95876.01
2017-11-27T02:16:14.377Z,95741.52
2017-11-27T02:17:51.463Z,95645.35
2017-11-27T02:19:30.058Z,95717.01
2017-11-27T02:21:08.331Z,95835.14
2017-11-27T02:22:47.443Z,95915.83
2017-11-27T02:24:26.114Z,95938.25
2017-11-27T02:26:07.123Z,95938.67
2017-11-27T02:27:46.304Z,95917.89
2017-11-27T02:29:25.401Z,95937.91
2017-11-27T02:31:05.493Z,96026.09
2017-11-27T02:32:44.692Z,95930.52
2017-11-27T02:34:24.188Z,95951.28
2017-11-27T02:36:04.387Z,95945.20
2017-11-27T02:37:43.292Z,95917.52
2017-11-27T02:39:21.785Z,95934.38
2017-11-27T02:41:00.584Z,95886.41
2017-11-27T02:42:39.484Z,95778.98
2017-11-27T02:44:19.384Z,95721.28
2017-11-27T02:46:00.079Z,95761.86
2017-11-27T02:47:40.988Z,95794.92
2017-11-27T02:49:20.386Z,95874.51
2017-11-27T02:51:00.079Z,95871.36
2017-11-27T02:52:40.885Z,95884.30
2017-11-27T02:54:19.875Z,95881.81
2017-11-27T02:55:58.506Z,95849.51
2017-11-27T02:57:37.575Z,95804.08
2017-11-27T02:59:17.086Z,95807.03
2017-11-27T03:00:56.869Z,95835.20
2017-11-27T03:02:36.271Z,95889.11
2017-11-27T03:04:16.774Z,95930.09
2017-11-27T03:05:56.874Z,95886.84
2017-11-27T03:07:39.670Z,95761.86
2017-11-27T03:09:18.372Z,95796.30
2017-11-27T03:10:57.863Z,95815.27
2017-11-27T03:12:37.222Z,95663.08
2017-11-27T03:14:17.272Z,95707.86
2017-11-27T03:15:57.076Z,95778.22
2017-11-27T03:17:35.569Z,95749.27
2017-11-27T03:19:15.988Z,95770.62
2017-11-27T03:20:54.670Z,95827.38
2017-11-27T03:22:35.471Z,95845.49
2017-11-27T03:24:15.876Z,95870.13
2017-11-27T03:25:54.386Z,95912.91
2017-11-27T03:27:33.989Z,95868.06
2017-11-27T03:29:15.300Z,95840.42
2017-11-27T03:30:54.205Z,95857.61
2017-11-27T03:32:33.800Z,95855.16
2017-11-27T03:34:12.408Z,95868.02
2017-11-27T03:35:52.325Z,95901.55
2017-11-27T03:37:31.320Z,95926.77
2017-11-27T03:39:10.217Z,95911.63
2017-11-27T03:40:49.123Z,95793.34
2017-11-27T03:42:28.151Z,95738.27
2017-11-27T03:44:07.047Z,95808.03
2017-11-27T03:45:46.329Z,95824.45
2017-11-27T03:47:26.935Z,95841.69
2017-11-27T03:49:06.034Z,95830.34
2017-11-27T03:50:45.137Z,95844.28
2017-11-27T03:52:23.637Z,95787.27
2017-11-27T03:54:02.769Z,95770.94
2017-11-27T03:55:43.336Z,95786.84
2017-11-27T03:57:22.938Z,95810.63
2017-11-27T03:59:05.928Z,95735.22
2017-11-27T04:00:45.627Z,95789.06
2017-11-27T04:02:23.628Z,95773.94
2017-11-27T04:04:02.819Z,95869.38
2017-11-27T04:05:42.022Z,95886.58
2017-11-27T04:07:21.021Z,95851.95
2017-11-27T04:09:00.336Z,95842.43
2017-11-27T04:10:41.314Z,95844.23
2017-11-27T04:12:29.714Z,95852.52
2017-11-27T04:14:08.317Z,95904.72
2017-11-27T04:15:50.710Z,95930.94
2017-11-27T04:17:30.191Z,95938.39
2017-11-27T04:19:10.934Z,95927.08
2017-11-27T04:20:50.415Z,95896.08
2017-11-27T04:22:29.219Z,95886.58
2017-11-27T04:24:07.821Z,95849.45
2017-11-27T04:25:46.411Z,95754.86
2017-11-27T04:27:24.808Z,95710.13
2017-11-27T04:29:06.104Z,95779.54
2017-11-27T04:30:46.514Z,95790.22
2017-11-27T04:32:25.219Z,95817.96
2017-11-27T04:34:04.705Z,95830.02
2017-11-27T04:35:45.399Z,95871.50
2017-11-27T04:37:25.497Z,95867.54
2017-11-27T04:39:04.296Z,95874.98
2017-11-27T04:40:42.924Z,95770.52
2017-11-27T04:42:22.105Z,95682.52
2017-11-27T04:44:02.300Z,95562.64
2017-11-27T04:45:42.593Z,95633.05
2017-11-27T04:47:21.899Z,95692.06
2017-11-27T04:48:59.878Z,95707.12
2017-11-27T04:50:38.504Z,95771.72
2017-11-27T04:52:19.000Z,95831.23
2017-11-27T04:53:57.506Z,95898.11
2017-11-27T04:55:36.299Z,95925.34
2017-11-27T04:57:15.301Z,95908.09
2017-11-27T04:58:54.593Z,95923.70
2017-11-27T05:00:33.601Z,95864.00
2017-11-27T05:02:13.596Z,95811.94
2017-11-27T05:03:52.401Z,95805.06
2017-11-27T05:05:34.508Z,95817.86
2017-11-27T05:07:15.695Z,95784.77
2017-11-27T05:08:56.720Z,95791.23
2017-11-27T05:10:35.326Z,95794.18
2017-11-27T05:12:21.450Z,95847.71
2017-11-27T05:13:59.750Z,95804.02
2017-11-27T05:15:48.053Z,95760.63
2017-11-27T05:17:31.286Z,95757.14
2017-11-27T05:19:12.171Z,95708.80
2017-11-27T05:20:54.139Z,95722.12
2017-11-27T05:22:40.554Z,95760.06
2017-11-27T05:24:26.060Z,95782.12
2017-11-27T05:26:03.932Z,95776.05
2017-11-27T05:27:44.915Z,95790.33
2017-11-27T05:29:22.767Z,95767.88
2017-11-27T05:31:04.877Z,95753.23
2017-11-27T05:32:44.465Z,95761.80
2017-11-27T05:34:22.075Z,95773.47
2017-11-27T05:36:00.071Z,95800.53
2017-11-27T05:37:38.799Z,95810.14
2017-11-27T05:39:18.377Z,95871.97
2017-11-27T05:40:58.074Z,95855.44
2017-11-27T05:42:39.666Z,95871.87
2017-11-27T05:44:19.361Z,95936.23
2017-11-27T05:45:58.258Z,95997.63
2017-11-27T05:47:37.057Z,95995.88
2017-11-27T05:49:17.447Z,96031.32
2017-11-27T05:50:57.555Z,96010.31
2017-11-27T05:52:39.143Z,95892.65
2017-11-27T05:54:18.737Z,95961.75
2017-11-27T05:55:59.172Z,96045.14
2017-11-27T05:57:42.539Z,95987.72
2017-11-27T05:59:22.010Z,95952.71
2017-11-27T06:00:59.108Z,96086.78
2017-11-27T06:02:40.634Z,96129.80
2017-11-27T06:04:22.626Z,96156.16
2017-11-27T06:06:09.728Z,96156.69
2017-11-27T06:07:51.530Z,96143.70
2017-11-27T06:09:30.334Z,96132.44
2017-11-27T06:11:07.445Z,96101.88
2017-11-27T06:12:45.020Z,96030.10
2017-11-27T06:14:23.557Z,96104.47
2017-11-27T06:16:11.052Z,96164.05
2017-11-27T06:17:49.748Z,96180.89
2017-11-27T06:19:32.349Z,96157.48
2017-11-27T06:21:15.150Z,96158.02
2017-11-27T06:22:54.496Z,96129.00
2017-11-27T06:26:05.524Z,96125.12
2017-11-27T06:27:47.355Z,96064.62
2017-11-27T06:29:24.487Z,96098.33
2017-11-27T06:31:01.433Z,96105.17
2017-11-27T06:33:07.579Z,96092.72
2017-11-27T06:34:47.253Z,96054.19
2017-11-27T06:36:27.253Z,96068.00
2017-11-27T06:38:05.449Z,96090.55
2017-11-27T06:39:43.994Z,96095.84
2017-11-27T06:41:29.652Z,96058.96
2017-11-27T06:43:09.754Z,96057.64
2017-11-27T06:44:49.853Z,96065.47
2017-11-27T06:46:26.932Z,96057.78
2017-11-27T06:48:06.256Z,96061.13
2017-11-27T06:49:48.178Z,96045.98
2017-11-27T06:51:27.756Z,96042.12
2017-11-27T06:53:04.854Z,96001.06
2017-11-27T06:54:42.520Z,95995.59
2017-11-27T06:56:28.387Z,95996.36
2017-11-27T06:58:08.901Z,95998.89
2017-11-27T06:59:49.597Z,96018.37
2017-11-27T07:01:28.935Z,96042.17
2017-11-27T07:03:05.955Z,96045.67
2017-11-27T07:04:43.944Z,96019.22
2017-11-27T07:06:23.203Z,95944.05
2017-11-27T07:08:03.409Z,95966.61
2017-11-27T07:09:44.012Z,95953.98
2017-11-27T07:11:23.533Z,95955.80
2017-11-27T07:13:04.216Z,95919.03
2017-11-27T07:14:41.940Z,95921.11
2017-11-27T07:16:20.956Z,95947.92
2017-11-27T07:17:58.534Z,95927.98
2017-11-27T07:19:39.020Z,95953.56
2017-11-27T07:21:22.922Z,95964.81
2017-11-27T07:23:00.020Z,95949.12
2017-11-27T07:24:39.915Z,95912.48
2017-11-27T07:26:23.408Z,95899.14
2017-11-27T07:28:03.628Z,95950.07
2017-11-27T07:29:42.052Z,96007.14
2017-11-27T07:31:22.921Z,96023.55
2017-11-27T07:33:00.934Z,96052.13
2017-11-27T07:34:41.125Z,96058.15
2017-11-27T07:36:28.202Z,96043.34
2017-11-27T07:38:14.965Z,96076.20
2017-11-27T07:40:01.525Z,96104.52
2017-11-27T07:41:41.102Z,96113.00
2017-11-27T07:43:21.103Z,96108.72
2017-11-27T07:45:07.980Z,96073.30
2017-11-27T07:46:48.781Z,96038.64
2017-11-27T07:48:29.698Z,96092.83
2017-11-27T07:50:12.701Z,96109.19
2017-11-27T07:51:53.414Z,96106.55
2017-11-27T07:53:36.296Z,96087.91
2017-11-27T07:55:15.798Z,96064.09
2017-11-27T07:56:55.402Z,96077.63
2017-11-27T07:58:34.687Z,96099.13
2017-11-27T08:00:14.919Z,96133.44
2017-11-27T08:01:52.459Z,96176.19
2017-11-27T08:03:31.531Z,96164.05
2017-11-27T08:05:11.924Z,96137.67
2017-11-27T08:06:52.328Z,96170.98
2017-11-27T08:08:36.362Z,96183.91
2017-11-27T08:10:15.945Z,96204.78
2017-11-27T08:11:56.951Z,96193.54
2017-11-27T08:13:37.542Z,96201.19
2017-11-27T08:15:17.130Z,96179.09
2017-11-27T08:16:57.148Z,96177.03
2017-11-27T08:18:37.535Z,96161.41
2017-11-27T08:20:17.159Z,96161.45
2017-11-27T08:22:00.255Z,96121.68
2017-11-27T08:23:43.053Z,96077.63
2017-11-27T08:25:25.863Z,96142.91
2017-11-27T08:27:04.957Z,96204.41
2017-11-27T08:28:43.659Z,96199.20
2017-11-27T08:30:23.284Z,96199.20
2017-11-27T08:32:04.450Z,96159.66
2017-11-27T08:33:43.649Z,96150.19
2017-11-27T08:35:22.548Z,96116.44
2017-11-27T08:37:01.436Z,96081.41
2017-11-27T08:38:41.433Z,96114.37
2017-11-27T08:40:22.341Z,96088.86
2017-11-27T08:42:02.422Z,96144.28
2017-11-27T08:45:15.322Z,96193.54
2017-11-27T08:46:58.716Z,96177.45
2017-11-27T08:48:37.515Z,96168.39
2017-11-27T08:50:17.417Z,96195.70
2017-11-27T08:51:56.119Z,96261.04
2017-11-27T08:53:35.320Z,96314.64
2017-11-27T08:55:16.011Z,96335.03
2017-11-27T08:56:56.510Z,96334.95
2017-11-27T08:58:35.213Z,96357.91
2017-11-27T09:00:18.211Z,96356.66
2017-11-27T09:01:57.109Z,96347.12
2017-11-27T09:03:39.915Z,96348.45
2017-11-27T09:05:19.822Z,96347.61
2017-11-27T09:07:00.006Z,96333.76
2017-11-27T09:08:39.309Z,96334.61
2017-11-27T09:11:57.904Z,96334.09
2017-11-27T09:13:38.200Z,96285.26
2017-11-27T09:15:27.242Z,96274.51
2017-11-27T09:17:08.090Z,96278.32
2017-11-27T09:18:46.790Z,96194.86
2017-11-27T09:20:31.413Z,96213.03
2017-11-27T09:22:13.226Z,96280.55
2017-11-27T09:23:53.919Z,96288.33
2017-11-27T09:25:33.097Z,96224.78
2017-11-27T09:27:12.493Z,96291.45
2017-11-27T09:28:52.794Z,96145.13
2017-11-27T09:30:35.308Z,96217.05
2017-11-27T09:32:16.092Z,96313.80
2017-11-27T09:33:55.088Z,96354.92
2017-11-27T09:35:35.700Z,96345.53
2017-11-27T09:37:15.397Z,96348.45
2017-11-27T09:38:53.997Z,96311.23
2017-11-27T09:40:32.518Z,96337.67
2017-11-27T09:42:14.017Z,96348.98
2017-11-27T09:43:53.128Z,96352.38
2017-11-27T09:45:33.234Z,96356.29
2017-11-27T09:47:17.537Z,96349.83
2017-11-27T09:48:56.437Z,96313.88
2017-11-27T09:50:38.846Z,96384.92
2017-11-27T09:52:17.352Z,96377.92
2017-11-27T09:53:58.556Z,96332.86
2017-11-27T09:55:41.556Z,96291.45
2017-11-27T09:57:22.064Z,96314.77
2017-11-27T09:59:09.125Z,96370.19
2017-11-27T10:00:50.662Z,96378.41
2017-11-27T10:02:29.960Z,96347.66
2017-11-27T10:04:14.768Z,96386.67
2017-11-27T10:05:56.373Z,96422.11
2017-11-27T10:07:39.399Z,96409.92
2017-11-27T10:09:22.575Z,96404.34
2017-11-27T10:11:01.971Z,96397.45
2017-11-27T10:12:45.670Z,96413.05
2017-11-27T10:14:25.977Z,96419.09
2017-11-27T10:16:09.666Z,96428.68
2017-11-27T10:17:54.286Z,96375.81
2017-11-27T10:19:35.160Z,96432.60
2017-11-27T10:21:18.755Z,96468.53
2017-11-27T10:23:08.969Z,96476.19
2017-11-27T10:24:49.251Z,96440.36
2017-11-27T10:26:44.062Z,96432.09
2017-11-27T10:28:25.458Z,96453.50
2017-11-27T10:30:05.961Z,96457.80
2017-11-27T10:33:31.043Z,96486.30
2017-11-27T10:35:12.640Z,96452.50
2017-11-27T10:36:56.339Z,96476.32
2017-11-27T10:38:40.516Z,96477.64
2017-11-27T10:40:22.156Z,96437.52
2017-11-27T10:42:02.652Z,96475.47
2017-11-27T10:43:45.542Z,96499.34
2017-11-27T10:45:36.847Z,96479.78
2017-11-27T10:47:17.852Z,96471.59
2017-11-27T10:50:28.553Z,96481.53
2017-11-27T10:52:08.059Z,96417.39
2017-11-27T10:53:49.370Z,96364.61
2017-11-27T10:55:28.474Z,96403.22
2017-11-27T10:57:07.075Z,96463.80
2017-11-27T10:58:46.975Z,96368.62
2017-11-27T11:00:33.387Z,96391.41
2017-11-27T11:02:14.384Z,96354.22
2017-11-27T11:03:54.079Z,96306.66
2017-11-27T11:05:36.035Z,96369.89
2017-11-27T11:07:14.982Z,96361.11
2017-11-27T11:08:55.110Z,96349.41
2017-11-27T11:10:33.788Z,96360.73
2017-11-27T11:12:14.191Z,96404.06
2017-11-27T11:13:55.293Z,96408.31
2017-11-27T11:15:36.516Z,96353.80
2017-11-27T11:17:18.194Z,96334.39
2017-11-27T11:18:58.093Z,96321.44
2017-11-27T11:20:37.602Z,96284.19
2017-11-27T11:22:16.701Z,96258.31
2017-11-27T11:23:56.498Z,96309.27
2017-11-27T11:25:38.396Z,96331.36
2017-11-27T11:27:17.484Z,96329.62
2017-11-27T11:28:57.090Z,96335.76
2017-11-27T11:30:36.690Z,96323.23
2017-11-27T11:32:16.594Z,96255.23
2017-11-27T11:35:37.284Z,96254.39
2017-11-27T11:37:17.984Z,96292.92
2017-11-27T11:39:00.001Z,96328.42
2017-11-27T11:40:41.782Z,96311.06
2017-11-27T11:42:20.486Z,96337.18
2017-11-27T11:44:01.381Z,96365.18
2017-11-27T11:45:43.079Z,96372.55
2017-11-27T11:47:24.091Z,96331.36
2017-11-27T11:49:04.295Z,96285.22
2017-11-27T11:50:46.683Z,96338.88
2017-11-27T11:52:25.395Z,96342.27
2017-11-27T11:54:04.094Z,96287.73
2017-11-27T11:55:43.197Z,96290.33
2017-11-27T11:57:22.588Z,96313.70
2017-11-27T11:59:02.693Z,96242.31
2017-11-27T12:00:45.511Z,96261.72
2017-11-27T12:02:24.609Z,96361.36
2017-11-27T12:04:03.587Z,96437.05
2017-11-27T12:05:45.789Z,96481.81
2017-11-27T12:07:26.492Z,96516.86
2017-11-27T12:09:09.387Z,96528.52
2017-11-27T12:10:50.388Z,96572.75
2017-11-27T12:12:32.484Z,96565.38
2017-11-27T12:14:11.890Z,96456.14
2017-11-27T12:15:52.885Z,96422.44
2017-11-27T12:17:41.590Z,96407.23
2017-11-27T12:19:21.083Z,96370.05
2017-11-27T12:21:00.985Z,96367.78
2017-11-27T12:22:40.590Z,96379.03
2017-11-27T12:24:19.890Z,96352.23
2017-11-27T12:25:58.385Z,96416.34
2017-11-27T12:27:38.587Z,96402.13
2017-11-27T12:29:20.291Z,96343.64
2017-11-27T12:31:01.902Z,96322.44
2017-11-27T12:32:41.734Z,96377.47
2017-11-27T12:34:21.107Z,96453.55
2017-11-27T12:35:59.616Z,96471.88
2017-11-27T12:37:39.324Z,96446.66
2017-11-27T12:39:18.724Z,96464.94
2017-11-27T12:40:58.922Z,96383.90
2017-11-27T12:42:39.955Z,96427.66
2017-11-27T12:44:25.553Z,96411.16
2017-11-27T12:46:05.335Z,96446.66
2017-11-27T12:47:43.938Z,96487.86
2017-11-27T12:49:24.947Z,96494.53
2017-11-27T12:51:05.241Z,96500.16
2017-11-27T12:52:46.241Z,96519.16
2017-11-27T12:54:29.545Z,96534.77
2017-11-27T12:56:10.867Z,96591.48
2017-11-27T12:57:55.549Z,96631.45
2017-11-27T12:59:34.948Z,96637.52
2017-11-27T13:01:16.649Z,96650.52
2017-11-27T13:02:58.953Z,96696.98
2017-11-27T13:04:41.045Z,96715.22
2017-11-27T13:06:20.151Z,96696.52
2017-11-27T13:07:59.943Z,96685.22
2017-11-27T13:09:43.743Z,96718.24
2017-11-27T13:11:32.941Z,96761.62
2017-11-27T13:13:12.041Z,96739.50
2017-11-27T13:14:51.643Z,96666.09
2017-11-27T13:16:37.648Z,96642.34
2017-11-27T13:18:18.749Z,96618.02
2017-11-27T13:20:08.335Z,96599.43
2017-11-27T13:21:49.952Z,96588.97
2017-11-27T13:23:30.157Z,96635.91
2017-11-27T13:25:09.240Z,96594.69
2017-11-27T13:26:50.441Z,96549.11
2017-11-27T13:28:43.138Z,96591.23
2017-11-27T13:30:29.835Z,96596.96
2017-11-27T13:32:13.237Z,96652.84
2017-11-27T13:33:59.092Z,96632.45
2017-11-27T13:35:44.435Z,96581.17
2017-11-27T13:37:26.838Z,96562.10
2017-11-27T13:39:10.529Z,96623.41
2017-11-27T13:40:51.030Z,96581.73
2017-11-27T13:42:35.083Z,96559.60
2017-11-27T13:44:19.216Z,96449.11
2017-11-27T13:47:48.345Z,96515.01
2017-11-27T13:49:32.904Z,96543.19
2017-11-27T13:51:15.914Z,96573.02
2017-11-27T13:53:02.415Z,96651.20
2017-11-27T13:54:46.540Z,96678.40
2017-11-27T13:56:37.533Z,96600.80
2017-11-27T13:58:17.014Z,96612.48
2017-11-27T13:59:58.814Z,96653.75
2017-11-27T14:01:38.812Z,96677.08
2017-11-27T14:03:21.619Z,96649.87
2017-11-27T14:05:01.018Z,96644.23
2017-11-27T14:06:42.731Z,96638.17
2017-11-27T14:08:23.913Z,96633.02
2017-11-27T14:10:02.513Z,96651.20
2017-11-27T14:11:43.006Z,96737.13
2017-11-27T14:13:23.725Z,96720.56
2017-11-27T14:16:40.044Z,96635.15
2017-11-27T14:18:21.269Z,96689.33
2017-11-27T14:20:00.272Z,96698.47
2017-11-27T14:21:39.450Z,96635.62
2017-11-27T14:23:18.359Z,96666.42
2017-11-27T14:25:00.226Z,96644.70
2017-11-27T14:26:39.570Z,96727.19
2017-11-27T14:28:20.448Z,96767.19
2017-11-27T14:30:00.451Z,96821.00
2017-11-27T14:31:40.775Z,96831.37
2017-11-27T14:33:21.671Z,96773.27
2017-11-27T14:35:04.280Z,96667.70
2017-11-27T14:36:47.873Z,96672.09
2017-11-27T14:38:27.378Z,96661.55
2017-11-27T14:40:06.484Z,96698.42
2017-11-27T14:41:46.180Z,96765.02
2017-11-27T14:43:26.383Z,96752.28
2017-11-27T14:45:05.402Z,96802.34
2017-11-27T14:46:46.479Z,96742.85
2017-11-27T14:48:28.386Z,96711.16
2017-11-27T14:50:08.760Z,96684.13
2017-11-27T14:51:47.657Z,96744.27
2017-11-27T14:53:28.461Z,96810.29
2017-11-27T14:55:09.551Z,96858.84
2017-11-27T14:56:50.358Z,96797.08
2017-11-27T14:58:29.958Z,96773.73
2017-11-27T15:00:09.757Z,96820.28
2017-11-27T15:01:50.253Z,96731.55
2017-11-27T15:03:30.348Z,96720.41
2017-11-27T15:05:09.769Z,96754.23
2017-11-27T15:06:49.755Z,96689.90
2017-11-27T15:08:31.550Z,96728.70
2017-11-27T15:10:18.451Z,96740.34
2017-11-27T15:12:00.349Z,96730.70
2017-11-27T15:13:44.147Z,96710.30
2017-11-27T15:15:30.992Z,96678.59
2017-11-27T15:17:15.598Z,96709.88
2017-11-27T15:19:00.854Z,96656.20
2017-11-27T15:20:46.086Z,96670.45
2017-11-27T15:22:32.349Z,96622.70
2017-11-27T15:24:17.183Z,96717.30
2017-11-27T15:25:59.069Z,96755.59
2017-11-27T15:27:45.464Z,96692.92
2017-11-27T15:29:30.595Z,96692.55
2017-11-27T15:31:30.674Z,96654.87
2017-11-27T15:33:18.388Z,96634.00
2017-11-27T15:35:00.457Z,96532.13
2017-11-27T15:36:44.560Z,96614.95
2017-11-27T15:38:27.240Z,96659.65
2017-11-27T15:40:14.491Z,96672.20
2017-11-27T15:41:58.524Z,96662.69
2017-11-27T15:43:42.677Z,96719.47
2017-11-27T15:45:31.268Z,96743.84
2017-11-27T15:49:06.275Z,96624.13
2017-11-27T15:50:49.567Z,96747.02
2017-11-27T15:52:32.193Z,96819.05
2017-11-27T15:54:13.193Z,96851.98
2017-11-27T15:55:53.179Z,96814.65
2017-11-27T15:57:33.172Z,96831.05
2017-11-27T15:59:14.273Z,96788.60
2017-11-27T16:00:56.393Z,96819.05
2017-11-27T16:02:36.397Z,96785.14
2017-11-27T16:04:15.685Z,96780.36
2017-11-27T16:05:54.885Z,96788.65
2017-11-27T16:07:38.702Z,96866.42
2017-11-27T16:09:18.985Z,96832.08
2017-11-27T16:10:57.995Z,96842.97
2017-11-27T16:12:37.015Z,96850.78
2017-11-27T16:14:16.393Z,96793.48
2017-11-27T16:15:59.897Z,96650.62
2017-11-27T16:17:39.307Z,96656.30
2017-11-27T16:19:20.300Z,96660.17
2017-11-27T16:21:00.003Z,96713.48
2017-11-27T16:22:39.592Z,96701.45
2017-11-27T16:24:19.010Z,96691.32
2017-11-27T16:25:59.302Z,96667.52
2017-11-27T16:27:40.003Z,96712.70
2017-11-27T16:29:20.009Z,96754.50
2017-11-27T16:31:00.797Z,96808.72
2017-11-27T16:32:41.200Z,96838.62
2017-11-27T16:34:20.386Z,96852.03
2017-11-27T16:36:02.588Z,96861.13
2017-11-27T16:37:44.783Z,96877.95
2017-11-27T16:39:26.491Z,96874.11
2017-11-27T16:41:09.492Z,96883.44
2017-11-27T16:42:52.523Z,96822.17
2017-11-27T16:44:32.094Z,96844.73
2017-11-27T16:46:18.288Z,96795.75
2017-11-27T16:47:59.793Z,96810.56
2017-11-27T16:49:44.397Z,96840.41
2017-11-27T16:51:27.481Z,96771.50
2017-11-27T16:53:17.900Z,96855.53
2017-11-27T16:54:59.897Z,96799.72
2017-11-27T16:56:40.787Z,96811.41
2017-11-27T16:58:31.318Z,96784.84
2017-11-27T17:00:22.289Z,96825.68
2017-11-27T17:02:04.196Z,96766.63
2017-11-27T17:03:45.103Z,96821.84
2017-11-27T17:05:28.509Z,96879.03
2017-11-27T17:07:18.114Z,96900.34
2017-11-27T17:08:59.611Z,96899.92
2017-11-27T17:10:45.322Z,96876.47
2017-11-27T17:12:27.197Z,96874.33
2017-11-27T17:14:10.182Z,96906.90
2017-11-27T17:15:58.926Z,96905.14
2017-11-27T17:17:42.294Z,96843.55
2017-11-27T17:19:27.630Z,96821.47
2017-11-27T17:21:07.452Z,96846.09
2017-11-27T17:22:51.342Z,96788.92
2017-11-27T17:36:39.139Z,96946.52
2017-11-27T17:38:18.232Z,97031.81
2017-11-27T17:39:57.574Z,97000.94
2017-11-27T17:41:38.328Z,97119.67
2017-11-27T17:43:19.057Z,97157.55
2017-11-27T17:44:59.121Z,97199.84
2017-11-27T17:46:39.514Z,97220.59
2017-11-27T17:48:18.922Z,97157.50
2017-11-27T17:49:58.901Z,97150.91
2017-11-27T17:51:39.917Z,97143.63
2017-11-27T17:53:23.951Z,97168.41
2017-11-27T17:55:05.827Z,97138.37
2017-11-27T17:56:49.729Z,97049.69
2017-11-27T17:58:28.727Z,97037.45
2017-11-27T18:00:09.429Z,97091.81
2017-11-27T18:01:50.423Z,97142.34
2017-11-27T18:03:31.121Z,97097.94
2017-11-27T18:05:10.443Z,97044.91
2017-11-27T18:06:49.524Z,97077.36
2017-11-27T18:08:29.027Z,97108.38
2017-11-27T18:10:08.635Z,97078.91
2017-11-27T18:11:49.131Z,97044.95
2017-11-27T18:13:30.825Z,97098.36
2017-11-27T18:15:12.248Z,97160.67
2017-11-27T18:16:52.524Z,97126.13
2017-11-27T18:18:33.754Z,97141.92
2017-11-27T18:20:13.822Z,97131.91
2017-11-27T18:21:53.432Z,97160.72
2017-11-27T18:23:34.825Z,97092.25
2017-11-27T18:25:14.815Z,97098.08
2017-11-27T18:26:55.637Z,97112.31
2017-11-27T18:28:35.923Z,97111.46
2017-11-27T18:30:17.021Z,97067.58
2017-11-27T18:31:56.923Z,97041.53
2017-11-27T18:33:36.818Z,97091.48
2017-11-27T18:35:17.516Z,97101.06
2017-11-27T18:36:57.218Z,96973.16
2017-11-27T18:38:37.927Z,96975.85
2017-11-27T18:40:20.034Z,97036.22
2017-11-27T18:42:00.126Z,97034.13
2017-11-27T18:43:42.803Z,97121.56
2017-11-27T18:45:23.806Z,97126.83
2017-11-27T18:47:04.139Z,97169.02
2017-11-27T18:48:45.548Z,97139.79
2017-11-27T18:50:27.262Z,97128.48
2017-11-27T18:52:08.061Z,97033.27
2017-11-27T18:53:48.776Z,97128.63
2017-11-27T18:55:36.382Z,96995.81
2017-11-27T18:57:22.884Z,96998.05
2017-11-27T18:59:02.989Z,96985.05
2017-11-27T19:00:44.487Z,97039.73
2017-11-27T19:02:27.580Z,97004.48
2017-11-27T19:04:07.588Z,96986.70
2017-11-27T19:05:47.586Z,96999.70
2017-11-27T19:07:30.625Z,97118.91
2017-11-27T19:09:12.293Z,97064.59
2017-11-27T19:10:52.999Z,96964.13
2017-11-27T19:12:33.111Z,97029.43
2017-11-27T19:14:12.793Z,97129.44
2017-11-27T19:15:54.509Z,97183.41
2017-11-27T19:17:33.691Z,97058.55
2017-11-27T19:19:13.604Z,97122.41
2017-11-27T19:20:55.589Z,97134.27
2017-11-27T19:22:34.701Z,97105.47
2017-11-27T19:24:14.387Z,97166.93
2017-11-27T19:25:54.889Z,97285.30
2017-11-27T19:27:35.591Z,97321.97
2017-11-27T19:29:14.789Z,97365.54
2017-11-27T19:30:57.273Z,97441.38
2017-11-27T19:32:39.787Z,97422.57
2017-11-27T19:34:21.386Z,97453.95
2017-11-27T19:36:02.076Z,97415.63
2017-11-27T19:37:42.771Z,97321.97
2017-11-27T19:39:22.966Z,97301.96
2017-11-27T19:41:02.880Z,97179.08
2017-11-27T19:42:42.869Z,97074.69
2017-11-27T19:44:25.168Z,97156.48
2017-11-27T19:46:04.962Z,97139.62
2017-11-27T19:47:49.469Z,97226.50
2017-11-27T19:49:30.063Z,97272.66
2017-11-27T19:51:12.466Z,97189.09
2017-11-27T19:52:53.557Z,97203.34
2017-11-27T19:54:34.185Z,97156.52
2017-11-27T19:56:15.572Z,97230.48
2017-11-27T19:57:55.883Z,97315.03
2017-11-27T19:59:36.787Z,97300.08
2017-11-27T20:01:16.801Z,97192.56
2017-11-27T20:02:57.811Z,97210.41
2017-11-27T20:04:37.298Z,97167.36
2017-11-27T20:06:17.999Z,97145.57
2017-11-27T20:07:58.099Z,97194.31
2017-11-27T20:09:39.000Z,97191.70
2017-11-27T20:11:18.696Z,97158.66
2017-11-27T20:12:56.083Z,97191.28
2017-11-27T20:14:38.423Z,97205.32
2017-11-27T20:16:21.663Z,97197.92
2017-11-27T20:18:04.126Z,97279.61